Decoded Metar for KDMW (CARROLL CNTY REG in MD, USA) (IATA:DMW) | Meteo·Mobile Aviation Weather
aviador You're here:

KDMW Decoded Metar

CARROLL CNTY REG in MD, USA
Report Time2019-04-19 22:00:00
UTC Time2019-04-19 22:25:49
Flight Rules mvfr MVFR
Wind160° at 13 Gusting to 18 kt
W.Decomp.*RWY 16: 12.8 kt HW 2.5 kt RCW
Visibility9999 m
Phenomena:N/A
Clouds:Broken 014 Hf
Broken 023 Hf
Overcast 029 Hf
Expected CloudBase > 800 ft AGL from Temp-Dew spread
Ceiling1,400 ft
Temp21°C (ISA +8)
Dew Point19°C (88% RH)
AAT19.5°C
QNH1003 hPa
Density Alt2,306 ft
Elevation791 ft
Report Wrong Elevation
Raw Report
KDMW 192200Z AUTO 16013G18KT 10SM BKN014 BKN023 OVC029 21/19 A2961
RMK AO2=

Extra information for KDMW:More info

Metar Taf Metar & Taf Last 4 Metars F.Rules Stats Wind Profile Meteogram Temp Stats Airport Information Weather charts Add Link Nearby VenuesMetar ALERT Operation Metar Decoded Social comments

AIRNAV info for KDMW